Decoded Metar for WBGR (MIRI in MALAYSIA) (IATA:MYY) | Meteo·Mobile Aviation Weather
aviador You're here:

WBGR Decoded Metar

MIRI in MALAYSIA
Report Time2018-10-23 09:00:00
UTC Time2018-10-23 09:16:12
Flight Rules vfr VFR
Wind290° at 07 kt
W.Decomp.*RWY 20: 7.0 kt RCW
W.Rank290° ranks 5
Current wind is above 290° avg. (5.7)
Visibility9999 m
Phenomena:N/A
Clouds:Few 016 Hf
Broken 300 Hf
Expected CloudBase > 2,400 ft AGL from Temp-Dew spread
Ceiling30,000 ft
Temp31°C (ISA +16)
Dew Point25°C (70% RH)
Heat Index37.6°C
QNH1007 hPa
Density Alt2,520 ft
Elevation59 ft
Report Wrong Elevation
Raw Report
METAR WBGR 230900Z 29007KT 250V340 9999 FEW016 BKN300 31/25 Q1007=

Extra information for WBGR:More info

Metar Taf Metar & Taf Last 4 Metars F.Rules Stats Wind Profile Meteogram Temp Stats Airport Information Weather charts Add Link Nearby VenuesMetar ALERT Operation Metar Decoded Social comments